Time;durP1;ratioP1;P1;durP2;ratioP2;P2;SDS_P1;SDS_P2;PMS_P1;PMS_P2;Temp;Humidity;BMP_temperature;BMP_pressure;BME280_temperature;BME280_humidity;BME280_pressure;Samples;Min_cycle;Max_cycle;Signal;HPM_P1;HPM_P2
2023/05/03 00:02:15;;;;;;;5.88;2.95;;;6.60;99.90;;;;;;5092378;28;20359;-58
2023/05/03 00:04:41;;;;;;;7.53;3.13;;;6.60;99.90;;;;;;5092017;28;20040;-58
2023/05/03 00:07:07;;;;;;;4.50;3.10;;;6.60;99.90;;;;;;5091002;28;20545;-59
2023/05/03 00:09:34;;;;;;;4.70;2.85;;;6.40;99.90;;;;;;5092137;28;20098;-57
2023/05/03 00:12:00;;;;;;;6.13;2.92;;;6.50;99.90;;;;;;5090747;28;20048;-58
2023/05/03 00:14:26;;;;;;;4.10;2.80;;;6.40;99.90;;;;;;5092454;28;20403;-57
2023/05/03 00:16:52;;;;;;;5.07;3.20;;;6.30;99.90;;;;;;5091869;28;20056;-58
2023/05/03 00:19:18;;;;;;;8.38;3.22;;;6.30;99.90;;;;;;5092264;28;20043;-58
2023/05/03 00:21:45;;;;;;;8.05;3.40;;;6.20;99.90;;;;;;5092190;28;20044;-57
2023/05/03 00:24:10;;;;;;;6.53;3.25;;;6.20;99.90;;;;;;5092344;28;20040;-58
2023/05/03 00:26:36;;;;;;;6.60;3.58;;;6.20;99.90;;;;;;5092096;28;20043;-58
2023/05/03 00:29:02;;;;;;;5.93;3.20;;;6.20;99.90;;;;;;5091670;28;20051;-58
2023/05/03 00:31:28;;;;;;;5.53;3.33;;;6.30;99.90;;;;;;5091931;28;20046;-57
2023/05/03 00:33:53;;;;;;;8.60;4.15;;;6.40;99.90;;;;;;5091733;28;20044;-58
2023/05/03 00:36:19;;;;;;;6.10;3.45;;;6.40;99.90;;;;;;5092024;28;20378;-58
2023/05/03 00:38:46;;;;;;;6.13;3.38;;;6.50;99.90;;;;;;5094378;28;20389;-58
2023/05/03 00:41:12;;;;;;;10.40;4.53;;;6.50;99.90;;;;;;5095428;28;20535;-58
2023/05/03 00:43:38;;;;;;;6.57;4.40;;;6.50;99.90;;;;;;5094570;28;20047;-58
2023/05/03 00:46:06;;;;;;;7.55;4.50;;;6.50;99.90;;;;;;5095028;28;20371;-58
2023/05/03 00:48:33;;;;;;;6.63;4.07;;;6.60;99.90;;;;;;5095480;28;20432;-57
2023/05/03 00:51:01;;;;;;;5.55;3.70;;;6.70;99.90;;;;;;5095371;28;20036;-58
2023/05/03 00:53:27;;;;;;;5.05;3.83;;;6.70;99.90;;;;;;5094031;28;20040;-58
2023/05/03 00:55:54;;;;;;;4.82;3.17;;;6.80;99.90;;;;;;5095250;28;20115;-58
2023/05/03 00:58:20;;;;;;;6.18;3.38;;;6.80;99.90;;;;;;5095598;28;20131;-58
2023/05/03 01:00:47;;;;;;;6.20;3.50;;;6.90;99.90;;;;;;5095311;28;20541;-58
2023/05/03 01:03:13;;;;;;;7.03;3.50;;;6.90;99.90;;;;;;5093774;28;20043;-58
2023/05/03 01:06:22;;;;;;;4.95;3.08;;;7.00;99.90;;;;;;5095229;28;20424;-57
2023/05/03 01:09:11;;;;;;;5.15;3.60;;;7.00;99.90;;;;;;5052541;28;20057;-58
2023/05/03 01:11:58;;;;;;;7.40;3.35;;;7.00;99.90;;;;;;5035701;28;20064;-59
2023/05/03 01:14:46;;;;;;;5.95;3.20;;;7.10;99.90;;;;;;5032364;28;20068;-57
2023/05/03 01:17:13;;;;;;;5.65;2.90;;;7.10;99.90;;;;;;5032197;28;20092;-57
2023/05/03 01:20:07;;;;;;;5.22;3.03;;;7.10;99.90;;;;;;5016165;28;20470;-57
2023/05/03 01:22:38;;;;;;;4.57;3.38;;;7.20;99.90;;;;;;5030760;28;20049;-57
2023/05/03 01:25:08;;;;;;;4.97;2.80;;;7.20;99.90;;;;;;5032282;28;20053;-58
2023/05/03 01:27:35;;;;;;;7.93;3.40;;;7.30;99.90;;;;;;5032488;28;20049;-58
2023/05/03 01:30:06;;;;;;;5.15;2.55;;;7.20;99.90;;;;;;5032349;28;20104;-57
2023/05/03 01:32:54;;;;;;;7.30;3.33;;;7.30;99.90;;;;;;5032139;28;20049;-59
2023/05/03 01:35:34;;;;;;;4.05;2.40;;;7.20;99.90;;;;;;4973144;28;20062;-57
2023/05/03 01:38:01;;;;;;;7.60;3.10;;;7.10;99.90;;;;;;4957202;28;20150;-58
2023/05/03 01:40:29;;;;;;;4.63;3.40;;;7.10;99.90;;;;;;4956958;28;20556;-58
2023/05/03 01:42:56;;;;;;;7.90;3.27;;;7.00;99.90;;;;;;4973106;28;20046;-57
2023/05/03 01:45:22;;;;;;;5.63;2.92;;;7.00;99.90;;;;;;4992001;28;20053;-58
2023/05/03 01:47:48;;;;;;;7.78;2.78;;;7.00;99.90;;;;;;5031845;28;20037;-58
2023/05/03 01:50:13;;;;;;;7.05;3.30;;;7.00;99.90;;;;;;5031553;28;20037;-58
2023/05/03 01:52:39;;;;;;;6.93;3.25;;;7.00;99.90;;;;;;5031710;28;20050;-58
2023/05/03 01:55:05;;;;;;;5.32;2.97;;;7.00;99.90;;;;;;5031631;28;20071;-57
2023/05/03 01:57:31;;;;;;;5.30;2.85;;;6.90;99.90;;;;;;5031550;28;20053;-58
2023/05/03 01:59:56;;;;;;;4.30;3.00;;;6.80;99.90;;;;;;5031599;28;20050;-58
2023/05/03 02:02:22;;;;;;;5.72;3.28;;;6.80;99.90;;;;;;5031676;28;20037;-59
2023/05/03 02:04:48;;;;;;;7.65;2.97;;;6.70;99.90;;;;;;5037714;28;20491;-58
2023/05/03 02:07:14;;;;;;;6.55;2.80;;;6.70;99.90;;;;;;5071225;28;20070;-58
2023/05/03 02:09:40;;;;;;;4.47;2.90;;;6.70;99.90;;;;;;5071349;28;20178;-58
2023/05/03 02:12:05;;;;;;;3.50;2.75;;;6.70;99.90;;;;;;5067181;28;20054;-59
2023/05/03 02:14:31;;;;;;;5.07;3.28;;;6.80;99.90;;;;;;5093958;28;20040;-58
2023/05/03 02:16:58;;;;;;;5.88;2.97;;;6.70;99.90;;;;;;5093257;28;20055;-57
2023/05/03 02:19:23;;;;;;;7.45;3.50;;;6.70;99.90;;;;;;5093920;28;20032;-57
2023/05/03 02:21:49;;;;;;;9.90;3.63;;;6.60;99.90;;;;;;5092338;28;20048;-57
2023/05/03 02:24:15;;;;;;;8.35;2.88;;;6.50;99.90;;;;;;5093995;28;20074;-58
2023/05/03 02:26:41;;;;;;;5.38;2.80;;;6.50;99.90;;;;;;5093612;28;20442;-57
2023/05/03 02:29:07;;;;;;;4.85;3.00;;;6.50;99.90;;;;;;5093611;28;20036;-58
2023/05/03 02:31:32;;;;;;;6.78;3.72;;;6.50;99.90;;;;;;5092004;28;20044;-57
2023/05/03 02:33:58;;;;;;;4.35;3.50;;;6.50;99.90;;;;;;5093235;28;20036;-57
2023/05/03 02:36:23;;;;;;;4.70;3.28;;;6.40;99.90;;;;;;5093139;28;20032;-57
2023/05/03 02:38:49;;;;;;;7.03;3.03;;;6.40;99.90;;;;;;5093086;28;20036;-57
2023/05/03 02:41:15;;;;;;;6.03;3.30;;;6.40;99.90;;;;;;5093456;28;20119;-58
2023/05/03 02:43:40;;;;;;;6.18;3.22;;;6.40;99.90;;;;;;5093262;28;20036;-58
2023/05/03 02:46:06;;;;;;;7.80;2.80;;;6.40;99.90;;;;;;5093427;28;20043;-58
2023/05/03 02:48:32;;;;;;;5.20;3.28;;;6.40;99.90;;;;;;5092060;28;20117;-58
2023/05/03 02:50:57;;;;;;;5.28;3.20;;;6.30;99.90;;;;;;5093138;28;20039;-58
2023/05/03 02:53:23;;;;;;;4.30;3.67;;;6.30;99.90;;;;;;5091667;28;20047;-57
2023/05/03 02:55:49;;;;;;;6.90;3.20;;;6.30;99.90;;;;;;5093076;28;20119;-57
2023/05/03 02:58:15;;;;;;;6.32;2.88;;;6.30;99.90;;;;;;5092775;28;20028;-58
2023/05/03 03:00:40;;;;;;;6.28;3.67;;;6.30;99.90;;;;;;5092491;28;20036;-58
2023/05/03 03:03:06;;;;;;;7.80;3.47;;;6.30;99.90;;;;;;5093356;28;20043;-58
2023/05/03 03:05:32;;;;;;;5.32;3.15;;;6.40;99.90;;;;;;5093510;28;20495;-58
2023/05/03 03:07:58;;;;;;;6.22;3.28;;;6.40;99.90;;;;;;5092852;28;20474;-57
2023/05/03 03:10:23;;;;;;;4.30;2.85;;;6.40;99.90;;;;;;5093039;28;20039;-57
2023/05/03 03:12:49;;;;;;;6.82;3.45;;;6.50;99.90;;;;;;5092728;28;20040;-59
2023/05/03 03:15:15;;;;;;;5.53;3.05;;;6.40;99.90;;;;;;5092632;28;20451;-59
2023/05/03 03:17:40;;;;;;;7.35;2.83;;;6.50;99.90;;;;;;5092250;28;20082;-57
2023/05/03 03:20:10;;;;;;;4.43;3.08;;;6.50;99.90;;;;;;5092450;28;20048;-57
2023/05/03 03:22:37;;;;;;;6.28;2.90;;;6.50;99.90;;;;;;5092348;28;20044;-57
2023/05/03 03:25:03;;;;;;;4.78;2.10;;;6.50;99.90;;;;;;5092886;28;20460;-57
2023/05/03 03:27:29;;;;;;;5.88;2.70;;;6.50;99.90;;;;;;5092357;28;20111;-57
2023/05/03 03:29:55;;;;;;;2.95;2.33;;;6.60;99.90;;;;;;5092840;28;20119;-57
2023/05/03 03:32:21;;;;;;;4.63;2.53;;;6.60;99.90;;;;;;5092521;28;20036;-58
2023/05/03 03:34:47;;;;;;;6.75;2.60;;;6.60;99.90;;;;;;5092443;28;20494;-58
2023/05/03 03:37:13;;;;;;;3.50;2.80;;;6.60;99.90;;;;;;5092480;28;20124;-58
2023/05/03 03:39:39;;;;;;;4.38;2.30;;;6.50;99.90;;;;;;5092890;28;20040;-57
2023/05/03 03:42:06;;;;;;;3.97;2.22;;;6.50;99.90;;;;;;5092744;28;20036;-57
2023/05/03 03:44:31;;;;;;;3.42;2.15;;;6.50;99.90;;;;;;5092409;28;20050;-57
2023/05/03 03:46:57;;;;;;;3.45;2.33;;;6.60;99.90;;;;;;5092253;28;20044;-57
2023/05/03 03:49:22;;;;;;;5.07;2.17;;;6.60;99.90;;;;;;5092607;28;20034;-58
2023/05/03 03:51:48;;;;;;;5.40;2.10;;;6.50;99.90;;;;;;5092457;28;20036;-58
2023/05/03 03:54:14;;;;;;;3.28;2.42;;;6.50;99.90;;;;;;5092359;28;20394;-57
2023/05/03 03:56:39;;;;;;;3.97;2.17;;;6.50;99.90;;;;;;5092607;28;20051;-58
2023/05/03 03:59:05;;;;;;;3.47;2.20;;;6.60;99.90;;;;;;5092705;28;20467;-58
2023/05/03 04:01:31;;;;;;;4.72;2.20;;;6.50;99.90;;;;;;5092105;28;20040;-58
2023/05/03 04:03:56;;;;;;;2.97;2.08;;;6.50;99.90;;;;;;5092185;28;20040;-58
2023/05/03 04:06:22;;;;;;;6.13;1.90;;;6.50;99.90;;;;;;5091919;28;20462;-57
2023/05/03 04:08:48;;;;;;;3.60;2.00;;;6.50;99.90;;;;;;5092231;28;20036;-57
2023/05/03 04:11:14;;;;;;;4.15;1.83;;;6.40;99.90;;;;;;5092184;28;20462;-58
2023/05/03 04:13:39;;;;;;;4.40;1.83;;;6.40;99.90;;;;;;5094503;28;20032;-58
2023/05/03 04:16:06;;;;;;;3.42;1.63;;;6.40;99.90;;;;;;5095565;28;20052;-57
2023/05/03 04:18:32;;;;;;;3.50;1.60;;;6.30;99.90;;;;;;5096230;28;20066;-57
2023/05/03 04:20:57;;;;;;;5.18;1.85;;;6.50;99.90;;;;;;5096046;28;20032;-57
2023/05/03 04:23:23;;;;;;;3.03;1.42;;;6.00;99.90;;;;;;5094498;28;20123;-58
2023/05/03 04:25:49;;;;;;;5.45;1.70;;;6.50;99.90;;;;;;5096146;28;20105;-57
2023/05/03 04:28:14;;;;;;;4.65;1.75;;;6.50;99.90;;;;;;5094435;28;20052;-57
2023/05/03 04:30:42;;;;;;;3.58;1.45;;;6.50;99.90;;;;;;5095892;28;20119;-58
2023/05/03 04:33:08;;;;;;;3.05;1.65;;;6.60;99.90;;;;;;5094892;28;20119;-58
2023/05/03 04:35:34;;;;;;;3.83;1.70;;;6.60;99.90;;;;;;5095813;28;20115;-57
2023/05/03 04:38:01;;;;;;;5.68;1.80;;;6.70;99.90;;;;;;5095695;28;20040;-57
2023/05/03 04:40:28;;;;;;;5.78;2.10;;;6.70;99.90;;;;;;5095756;28;20074;-57
2023/05/03 04:42:54;;;;;;;4.65;1.77;;;6.70;99.90;;;;;;5095591;28;20435;-57
2023/05/03 04:45:20;;;;;;;5.95;1.60;;;6.80;99.90;;;;;;5095757;28;20036;-57
2023/05/03 04:47:46;;;;;;;2.85;1.88;;;6.80;99.90;;;;;;5095772;28;20052;-58
2023/05/03 04:50:12;;;;;;;2.85;1.58;;;6.90;99.90;;;;;;5095607;28;20048;-58
2023/05/03 04:52:38;;;;;;;3.35;1.85;;;6.90;99.90;;;;;;5095820;28;20036;-58
2023/05/03 04:55:04;;;;;;;3.20;1.75;;;7.00;99.90;;;;;;5095225;28;20129;-57
2023/05/03 04:57:31;;;;;;;4.22;2.38;;;7.00;99.90;;;;;;5095361;28;20032;-58
2023/05/03 04:59:57;;;;;;;3.40;2.05;;;7.00;99.90;;;;;;5093804;28;20047;-58
2023/05/03 05:02:23;;;;;;;10.13;2.22;;;7.10;99.90;;;;;;5095513;28;20036;-57
2023/05/03 05:04:48;;;;;;;4.88;2.05;;;7.10;99.90;;;;;;5094018;28;20078;-58
2023/05/03 05:07:14;;;;;;;6.13;1.90;;;7.20;99.90;;;;;;5095202;28;20393;-57
2023/05/03 05:09:40;;;;;;;7.72;2.20;;;7.30;99.90;;;;;;5093941;28;20074;-58
2023/05/03 05:12:06;;;;;;;7.22;2.08;;;7.30;99.90;;;;;;5095439;28;20044;-58
2023/05/03 05:14:31;;;;;;;5.43;1.58;;;7.30;99.90;;;;;;5095115;28;20055;-58
2023/05/03 05:16:58;;;;;;;3.85;1.98;;;7.40;99.90;;;;;;5093677;28;20059;-58
2023/05/03 05:19:23;;;;;;;5.13;2.15;;;7.50;99.90;;;;;;5094729;28;20419;-59
2023/05/03 05:21:50;;;;;;;2.63;1.50;;;7.50;99.90;;;;;;5095041;28;20075;-57
2023/05/03 05:24:16;;;;;;;6.20;1.77;;;7.60;99.90;;;;;;5094133;28;20047;-57
2023/05/03 05:26:42;;;;;;;4.38;1.50;;;7.60;99.90;;;;;;5095078;28;20044;-58
2023/05/03 05:29:08;;;;;;;5.18;2.13;;;7.70;99.90;;;;;;5095187;28;20105;-58
2023/05/03 05:31:35;;;;;;;4.65;1.45;;;7.80;99.90;;;;;;5094988;28;20053;-57
2023/05/03 05:34:01;;;;;;;4.03;1.27;;;7.80;99.90;;;;;;5094674;28;20047;-57
2023/05/03 05:36:27;;;;;;;2.05;1.55;;;7.90;99.90;;;;;;5094719;28;20039;-58
2023/05/03 05:38:52;;;;;;;2.58;1.30;;;7.90;99.90;;;;;;5094789;28;20088;-57
2023/05/03 05:41:18;;;;;;;6.72;2.20;;;7.90;99.90;;;;;;5094751;28;20556;-58
2023/05/03 05:43:44;;;;;;;7.70;2.00;;;8.00;99.90;;;;;;5094653;28;20541;-57
2023/05/03 05:46:10;;;;;;;6.10;1.60;;;8.10;99.90;;;;;;5094241;28;20039;-58
2023/05/03 05:48:36;;;;;;;4.85;2.08;;;8.20;99.90;;;;;;5094620;28;20073;-58
2023/05/03 05:51:01;;;;;;;1.98;1.15;;;8.20;99.90;;;;;;5094333;28;20111;-58
2023/05/03 05:53:27;;;;;;;3.63;1.58;;;8.20;99.90;;;;;;5092534;28;20047;-57
2023/05/03 05:55:53;;;;;;;4.70;1.40;;;8.30;99.90;;;;;;5093845;28;20039;-58
2023/05/03 05:58:19;;;;;;;5.72;1.58;;;8.30;99.90;;;;;;5093829;28;20036;-58
2023/05/03 06:00:47;;;;;;;5.28;1.70;;;8.40;99.90;;;;;;5094089;28;20153;-58
2023/05/03 06:03:13;;;;;;;2.97;0.70;;;8.50;99.90;;;;;;5093803;28;20083;-58
2023/05/03 06:05:39;;;;;;;8.27;1.85;;;8.60;99.90;;;;;;5093865;28;20127;-58
2023/05/03 06:08:05;;;;;;;3.63;0.90;;;8.60;99.90;;;;;;5093538;28;20529;-58
2023/05/03 06:10:30;;;;;;;3.78;1.35;;;8.60;99.90;;;;;;5093943;28;20115;-58
2023/05/03 06:12:56;;;;;;;2.88;0.90;;;8.70;99.90;;;;;;5093800;28;20432;-58
2023/05/03 06:15:22;;;;;;;3.38;1.20;;;8.70;99.90;;;;;;5092209;28;20437;-58
2023/05/03 06:17:48;;;;;;;3.03;0.90;;;8.80;99.90;;;;;;5093337;28;20105;-57
2023/05/03 06:20:13;;;;;;;3.78;1.00;;;8.80;99.90;;;;;;5093669;28;20043;-58
2023/05/03 06:22:39;;;;;;;3.97;0.80;;;8.90;99.90;;;;;;5093813;28;20032;-58
2023/05/03 06:25:06;;;;;;;4.18;1.75;;;8.90;99.90;;;;;;5093422;28;20504;-58
2023/05/03 06:27:32;;;;;;;3.97;1.20;;;9.00;99.90;;;;;;5092556;28;20576;-58
2023/05/03 06:29:57;;;;;;;7.20;1.63;;;9.00;99.90;;;;;;5093288;28;20086;-58
2023/05/03 06:32:23;;;;;;;4.82;1.70;;;9.10;99.90;;;;;;5093748;28;20079;-57
2023/05/03 06:34:49;;;;;;;3.85;1.52;;;9.10;99.90;;;;;;5092872;28;20043;-58
2023/05/03 06:37:16;;;;;;;5.28;1.13;;;9.20;99.90;;;;;;5092953;28;20040;-57
2023/05/03 06:39:41;;;;;;;1.60;0.88;;;9.20;99.90;;;;;;5093259;28;20111;-57
2023/05/03 06:42:07;;;;;;;1.90;1.00;;;9.20;99.90;;;;;;5093540;28;20111;-58
2023/05/03 06:44:33;;;;;;;4.85;1.10;;;9.30;99.90;;;;;;5093230;28;20043;-57
2023/05/03 06:46:58;;;;;;;3.58;1.15;;;9.40;99.90;;;;;;5093284;28;20047;-58
2023/05/03 06:49:24;;;;;;;4.68;1.50;;;9.40;99.90;;;;;;5093091;28;20073;-58
2023/05/03 06:51:50;;;;;;;5.85;1.23;;;9.50;99.90;;;;;;5092783;28;20047;-57
2023/05/03 06:54:15;;;;;;;4.72;1.42;;;9.60;99.90;;;;;;5092741;28;20066;-58
2023/05/03 06:56:41;;;;;;;2.55;1.02;;;9.60;99.90;;;;;;5092707;28;20039;-58
2023/05/03 06:59:07;;;;;;;6.80;0.85;;;9.70;99.90;;;;;;5092756;28;20051;-57
2023/05/03 07:01:33;;;;;;;4.95;1.00;;;9.70;99.90;;;;;;5092943;28;20036;-58
2023/05/03 07:03:59;;;;;;;3.40;1.00;;;9.70;99.90;;;;;;5092871;28;20047;-58
2023/05/03 07:06:25;;;;;;;3.67;0.75;;;9.80;99.90;;;;;;5092868;28;20035;-58
2023/05/03 07:08:52;;;;;;;4.32;1.38;;;9.80;99.90;;;;;;5091482;28;20094;-58
2023/05/03 07:11:22;;;;;;;2.95;1.15;;;9.80;99.90;;;;;;5092544;28;20036;-58
2023/05/03 07:13:54;;;;;;;2.92;0.90;;;9.80;99.90;;;;;;5092950;28;20551;-57
2023/05/03 07:16:20;;;;;;;4.45;0.85;;;9.90;99.90;;;;;;5092434;28;20139;-58
2023/05/03 07:18:46;;;;;;;5.03;0.70;;;9.90;99.90;;;;;;5092596;28;20083;-59
2023/05/03 07:21:13;;;;;;;2.63;0.82;;;9.90;99.90;;;;;;5092566;28;20377;-59
2023/05/03 07:23:39;;;;;;;3.00;0.70;;;9.90;99.90;;;;;;5092721;28;20031;-58
2023/05/03 07:26:05;;;;;;;3.75;1.00;;;10.00;99.90;;;;;;5092588;28;20385;-58
2023/05/03 07:28:31;;;;;;;3.58;1.17;;;10.10;99.90;;;;;;5092393;28;20039;-58
2023/05/03 07:30:58;;;;;;;2.05;0.70;;;10.00;99.90;;;;;;5092043;28;20039;-58
2023/05/03 07:33:24;;;;;;;3.35;0.80;;;10.10;99.90;;;;;;5092788;28;20044;-57
2023/05/03 07:35:49;;;;;;;2.67;0.63;;;10.20;99.90;;;;;;5092424;28;20039;-58
2023/05/03 07:38:15;;;;;;;1.58;0.73;;;10.20;99.90;;;;;;5092413;28;20055;-58
2023/05/03 07:40:41;;;;;;;4.75;0.80;;;10.30;99.90;;;;;;5092330;28;20035;-58
2023/05/03 07:43:10;;;;;;;4.32;0.90;;;10.30;99.90;;;;;;5092627;28;20047;-57
2023/05/03 07:45:36;;;;;;;;;;;10.40;99.90;;;;;;5091466;28;20048;-58
2023/05/03 07:48:03;;;;;;;4.28;0.63;;;10.30;99.90;;;;;;5095688;28;19923;-58
2023/05/03 07:50:29;;;;;;;1.52;0.77;;;10.40;99.90;;;;;;5096386;28;20120;-58
2023/05/03 07:52:55;;;;;;;2.45;0.90;;;10.40;99.90;;;;;;5096532;28;20040;-58
2023/05/03 07:55:21;;;;;;;3.28;1.15;;;10.40;99.90;;;;;;5096641;28;20058;-58
2023/05/03 07:57:47;;;;;;;5.95;1.23;;;10.40;99.90;;;;;;5095465;28;20357;-58
2023/05/03 08:00:13;;;;;;;2.63;0.60;;;10.40;99.90;;;;;;5095145;28;20078;-58
2023/05/03 08:02:40;;;;;;;2.22;0.70;;;10.50;99.90;;;;;;5096018;28;20131;-58
2023/05/03 08:05:06;;;;;;;2.95;0.80;;;10.50;99.90;;;;;;5096316;28;20044;-58
2023/05/03 08:07:32;;;;;;;1.92;0.70;;;10.50;99.90;;;;;;5094980;28;20090;-58
2023/05/03 08:09:58;;;;;;;3.63;1.23;;;10.60;99.90;;;;;;5094946;28;20079;-58
2023/05/03 08:12:27;;;;;;;3.42;0.80;;;10.70;99.90;;;;;;5096264;28;20081;-59
2023/05/03 08:14:53;;;;;;;2.25;0.77;;;10.70;99.90;;;;;;5096107;28;20036;-59
2023/05/03 08:17:19;;;;;;;6.20;0.90;;;10.70;99.90;;;;;;5095883;28;20048;-58
2023/05/03 08:19:46;;;;;;;8.98;1.85;;;10.60;99.90;;;;;;5096134;28;20071;-59
2023/05/03 08:22:11;;;;;;;3.35;0.80;;;10.70;99.90;;;;;;5096277;28;20071;-58
2023/05/03 08:24:41;;;;;;;2.03;0.82;;;10.70;99.90;;;;;;5094876;28;20439;-58
2023/05/03 08:27:08;;;;;;;2.97;0.70;;;10.60;99.90;;;;;;5096115;28;20456;-59
2023/05/03 08:29:36;;;;;;;2.30;0.73;;;10.70;99.90;;;;;;5095174;28;20079;-58
2023/05/03 08:32:03;;;;;;;2.28;0.80;;;10.60;99.90;;;;;;5093724;28;20484;-58
2023/05/03 08:34:29;;;;;;;3.50;1.45;;;10.80;99.90;;;;;;5090446;28;20039;-58
2023/05/03 08:36:56;;;;;;;4.47;0.80;;;10.80;99.90;;;;;;5095713;28;20036;-58
2023/05/03 08:39:23;;;;;;;8.20;1.10;;;10.70;99.90;;;;;;5094403;28;20050;-58
2023/05/03 08:41:49;;;;;;;1.65;0.90;;;10.80;99.90;;;;;;5089203;28;20036;-58
2023/05/03 08:44:22;;;;;;;4.22;1.00;;;10.70;99.90;;;;;;5094961;28;20051;-58
2023/05/03 08:46:48;;;;;;;4.63;0.93;;;10.80;99.90;;;;;;5093104;28;20082;-58
2023/05/03 08:49:16;;;;;;;2.53;0.77;;;10.80;99.90;;;;;;5091662;28;20042;-58
2023/05/03 08:51:45;;;;;;;3.17;0.95;;;10.80;99.90;;;;;;5093566;28;20036;-58
2023/05/03 08:54:15;;;;;;;6.88;0.90;;;10.80;99.90;;;;;;5100604;28;20032;-58
2023/05/03 08:56:43;;;;;;;4.35;0.70;;;10.70;99.90;;;;;;5093957;28;20052;-58
2023/05/03 08:59:11;;;;;;;4.43;0.98;;;10.70;99.90;;;;;;5094181;28;20363;-58
2023/05/03 09:01:39;;;;;;;3.90;0.95;;;10.70;99.90;;;;;;5091074;28;20047;-58
2023/05/03 09:04:05;;;;;;;2.97;1.00;;;10.90;99.90;;;;;;5085925;28;20086;-57
2023/05/03 09:06:32;;;;;;;4.00;1.23;;;11.00;99.90;;;;;;5087562;28;20141;-59
2023/05/03 09:08:58;;;;;;;2.83;1.30;;;10.90;99.90;;;;;;5095143;28;20059;-59
2023/05/03 09:11:26;;;;;;;2.83;1.00;;;11.00;99.90;;;;;;5088278;28;20041;-59
2023/05/03 09:13:53;;;;;;;3.13;0.90;;;11.10;99.90;;;;;;5074795;28;20360;-58
2023/05/03 09:16:23;;;;;;;6.10;1.00;;;11.10;99.90;;;;;;5074671;28;20053;-58
2023/05/03 09:19:00;;;;;;;3.83;1.40;;;11.30;99.90;;;;;;5074386;28;20535;-58
2023/05/03 09:21:26;;;;;;;4.22;1.52;;;11.10;99.90;;;;;;5084828;28;20044;-58
2023/05/03 09:23:52;;;;;;;4.18;0.90;;;11.20;99.90;;;;;;5085881;28;20375;-58
2023/05/03 09:26:31;;;;;;;1.67;0.90;;;11.10;99.90;;;;;;5074426;28;20037;-58
2023/05/03 09:28:58;;;;;;;3.92;0.88;;;11.00;99.90;;;;;;5092543;28;20424;-58
2023/05/03 09:31:25;;;;;;;5.03;1.10;;;11.10;99.90;;;;;;5094369;28;20031;-59
2023/05/03 09:33:52;;;;;;;3.15;1.38;;;11.10;99.90;;;;;;5094798;28;20070;-59
2023/05/03 09:36:18;;;;;;;3.30;1.00;;;11.10;99.90;;;;;;5092854;28;20044;-58
2023/05/03 09:38:43;;;;;;;2.70;1.10;;;11.10;99.90;;;;;;5093055;28;20176;-58
2023/05/03 09:41:09;;;;;;;1.63;1.30;;;11.10;99.90;;;;;;5094154;28;20122;-58
2023/05/03 09:43:47;;;;;;;2.35;1.13;;;11.10;99.90;;;;;;5094677;28;20040;-58
2023/05/03 09:46:13;;;;;;;8.32;1.60;;;11.20;99.90;;;;;;5080220;28;20051;-58
2023/05/03 09:48:39;;;;;;;3.90;1.10;;;11.30;99.90;;;;;;5073843;28;20044;-58
2023/05/03 09:51:05;;;;;;;2.92;1.48;;;11.20;99.90;;;;;;5084738;28;20485;-58
2023/05/03 09:53:33;;;;;;;4.70;1.95;;;11.20;99.90;;;;;;5077530;28;20044;-58
2023/05/03 09:56:04;;;;;;;4.78;1.17;;;11.30;99.90;;;;;;5073652;28;20386;-58
2023/05/03 09:58:33;;;;;;;5.22;1.38;;;11.30;99.90;;;;;;5073743;28;20479;-58
2023/05/03 10:01:02;;;;;;;2.65;1.25;;;11.40;99.90;;;;;;5074162;28;20032;-58
2023/05/03 10:03:49;;;;;;;3.38;1.20;;;11.40;99.90;;;;;;5093274;28;20486;-58
2023/05/03 10:06:30;;;;;;;6.38;1.20;;;11.50;99.90;;;;;;5093926;28;20036;-58
2023/05/03 10:09:15;;;;;;;3.35;1.00;;;11.40;99.90;;;;;;5094031;28;20119;-58
2023/05/03 10:11:52;;;;;;;1.58;0.90;;;11.50;99.90;;;;;;5093819;28;20039;-59
2023/05/03 10:14:21;;;;;;;3.35;1.92;;;11.40;99.90;;;;;;5092922;28;20194;-58
2023/05/03 10:16:57;;;;;;;4.38;1.63;;;11.50;99.90;;;;;;5093354;28;20055;-58
2023/05/03 10:19:48;;;;;;;5.28;1.50;;;11.60;99.90;;;;;;5093712;28;20363;-58
2023/05/03 10:22:14;;;;;;;3.75;1.35;;;11.50;99.90;;;;;;5084323;28;20048;-58
2023/05/03 10:24:58;;;;;;;3.47;1.20;;;11.60;99.90;;;;;;5080253;28;20041;-59
2023/05/03 10:27:35;;;;;;;2.80;1.00;;;11.70;99.90;;;;;;5086286;28;20040;-58
2023/05/03 10:30:01;;;;;;;5.22;1.00;;;11.70;99.90;;;;;;5073488;28;20044;-58
2023/05/03 10:32:29;;;;;;;2.88;1.05;;;11.70;99.90;;;;;;5083992;28;20047;-58
2023/05/03 10:34:58;;;;;;;5.13;1.23;;;11.80;99.90;;;;;;5074880;28;20064;-58
2023/05/03 10:37:25;;;;;;;;;;;11.90;99.90;;;;;;5078067;28;20039;-59
2023/05/03 10:39:52;;;;;;;6.10;1.50;;;11.90;99.90;;;;;;5092306;28;19916;-57
2023/05/03 10:42:25;;;;;;;4.30;1.02;;;11.90;99.90;;;;;;5093238;28;20499;-58
2023/05/03 10:44:54;;;;;;;5.75;1.02;;;11.90;99.90;;;;;;5093173;28;20111;-58
2023/05/03 10:47:23;;;;;;;;;;;11.90;99.90;;;;;;5091651;28;20118;-58
2023/05/03 10:50:14;;;;;;;5.53;1.23;;;12.00;99.90;;;;;;5092376;28;19916;-58
2023/05/03 10:52:39;;;;;;;;;;;12.00;99.90;;;;;;5093305;28;20035;-58
2023/05/03 10:55:13;;;;;;;1.65;0.98;;;11.90;99.90;;;;;;5092674;28;20431;-58
2023/05/03 10:57:42;;;;;;;7.00;1.27;;;11.80;99.90;;;;;;5086288;28;20490;-58
2023/05/03 11:00:13;;;;;;;2.92;1.20;;;12.00;99.90;;;;;;5086713;28;20103;-57
2023/05/03 11:02:49;;;;;;;5.68;1.67;;;12.00;99.90;;;;;;5090204;28;20086;-58
2023/05/03 11:05:17;;;;;;;3.90;0.80;;;12.20;99.90;;;;;;5088851;28;20060;-58
2023/05/03 11:07:43;;;;;;;2.33;1.00;;;12.20;99.90;;;;;;5090745;28;20119;-58
2023/05/03 11:10:16;;;;;;;2.47;1.00;;;12.50;99.90;;;;;;5092509;28;20149;-58
2023/05/03 11:12:42;;;;;;;4.63;1.17;;;12.50;99.90;;;;;;5092340;28;20036;-59
2023/05/03 11:15:10;;;;;;;2.72;1.35;;;12.50;99.90;;;;;;5092423;28;20127;-58
2023/05/03 11:17:37;;;;;;;7.18;1.10;;;12.60;99.90;;;;;;5092098;28;20123;-58
2023/05/03 11:20:07;;;;;;;4.38;1.23;;;12.40;99.90;;;;;;5092673;28;20044;-58
2023/05/03 11:22:34;;;;;;;2.83;1.00;;;12.60;99.90;;;;;;5091897;28;20048;-59
2023/05/03 11:24:59;;;;;;;3.92;1.25;;;12.70;99.90;;;;;;5089938;28;20072;-58
2023/05/03 11:27:25;;;;;;;3.92;1.40;;;12.80;99.90;;;;;;5087054;28;20104;-59
2023/05/03 11:29:57;;;;;;;2.20;1.13;;;12.90;99.90;;;;;;5090195;28;20040;-59
2023/05/03 11:32:26;;;;;;;2.25;1.23;;;12.80;99.90;;;;;;5092905;28;20067;-58
2023/05/03 11:34:52;;;;;;;3.78;0.95;;;13.00;99.90;;;;;;5092953;28;20040;-59
2023/05/03 11:37:17;;;;;;;3.80;1.75;;;13.30;99.90;;;;;;5092696;28;20153;-59
2023/05/03 11:39:43;;;;;;;4.20;1.23;;;13.30;99.90;;;;;;5090757;28;20454;-58
2023/05/03 11:42:09;;;;;;;2.95;0.90;;;13.40;99.90;;;;;;5082289;28;20032;-58
2023/05/03 11:44:36;;;;;;;3.00;1.00;;;13.10;99.90;;;;;;5091473;28;20044;-59
2023/05/03 11:47:02;;;;;;;3.28;1.17;;;13.30;99.90;;;;;;5092452;28;20040;-59
2023/05/03 11:49:28;;;;;;;3.58;1.00;;;13.50;99.90;;;;;;5092723;28;20040;-58
2023/05/03 11:51:55;;;;;;;3.53;1.15;;;13.60;99.90;;;;;;5073769;28;20052;-58
2023/05/03 11:54:22;;;;;;;6.97;1.80;;;13.70;99.90;;;;;;5072311;28;20036;-59
2023/05/03 11:56:47;;;;;;;10.55;1.42;;;13.60;99.90;;;;;;5074599;28;20052;-58
2023/05/03 11:59:13;;;;;;;9.75;2.65;;;13.50;99.90;;;;;;5092557;28;20086;-58
2023/05/03 12:01:41;;;;;;;4.25;1.10;;;13.50;99.90;;;;;;5092104;28;20465;-58
2023/05/03 12:04:07;;;;;;;7.88;1.48;;;13.80;99.90;;;;;;5090961;28;20043;-58
2023/05/03 12:06:33;;;;;;;3.80;1.40;;;14.30;99.90;;;;;;5091828;28;20036;-58
2023/05/03 12:09:00;;;;;;;4.05;1.67;;;14.50;99.90;;;;;;5091644;28;20072;-58
2023/05/03 12:11:25;;;;;;;8.43;1.65;;;15.00;99.90;;;;;;5081208;28;20028;-59
2023/05/03 12:13:58;;;;;;;10.73;1.80;;;15.10;99.90;;;;;;5079238;28;20407;-59
2023/05/03 12:16:25;;;;;;;5.97;1.38;;;15.00;99.90;;;;;;5091750;28;20052;-59
2023/05/03 12:19:01;;;;;;;4.45;1.00;;;14.80;99.90;;;;;;5091858;28;20048;-58
2023/05/03 12:21:45;;;;;;;3.08;1.38;;;14.60;99.90;;;;;;5083182;28;20556;-58
2023/05/03 12:24:11;;;;;;;4.22;1.52;;;14.50;99.90;;;;;;5071417;28;20033;-59
2023/05/03 12:26:37;;;;;;;3.33;1.30;;;14.30;99.90;;;;;;5079312;28;20133;-58
2023/05/03 12:29:02;;;;;;;6.25;1.52;;;14.40;99.90;;;;;;5092131;28;20151;-58
2023/05/03 12:31:29;;;;;;;3.15;1.50;;;14.20;99.90;;;;;;5091702;28;20078;-58
2023/05/03 12:33:55;;;;;;;4.35;1.33;;;14.10;99.90;;;;;;5091148;28;20032;-59
2023/05/03 12:36:20;;;;;;;3.13;1.60;;;14.20;99.90;;;;;;5095213;28;20036;-58
2023/05/03 12:38:47;;;;;;;4.43;1.50;;;14.10;99.90;;;;;;5095110;28;20128;-58
2023/05/03 12:41:14;;;;;;;5.93;1.17;;;13.90;99.90;;;;;;5095475;28;20476;-59
2023/05/03 12:43:40;;;;;;;6.60;1.38;;;13.80;99.90;;;;;;5095413;28;20032;-59
2023/05/03 12:46:05;;;;;;;2.45;1.20;;;13.80;99.90;;;;;;5095395;28;20474;-59
2023/05/03 12:48:31;;;;;;;3.00;1.30;;;13.90;99.90;;;;;;5095619;28;20055;-60
2023/05/03 12:50:57;;;;;;;3.70;1.45;;;14.00;99.90;;;;;;5095577;28;20084;-58
2023/05/03 12:53:23;;;;;;;2.15;1.55;;;13.60;99.90;;;;;;5095663;28;20040;-59
2023/05/03 12:55:50;;;;;;;2.47;1.25;;;13.70;99.90;;;;;;5095355;28;20047;-59